createdAt,value
2022-11-03T00:01:00.595Z,101449.81
2022-11-03T00:03:27.755Z,101440.66
2022-11-03T00:06:06.700Z,101448.31
2022-11-03T00:08:33.943Z,101441.50
2022-11-03T00:11:18.633Z,101435.03
2022-11-03T00:13:45.028Z,101427.47
2022-11-03T00:16:12.724Z,101413.72
2022-11-03T00:18:39.688Z,101422.47
2022-11-03T00:21:11.191Z,101403.09
2022-11-03T00:23:40.490Z,101392.44
2022-11-03T00:26:19.034Z,101389.31
2022-11-03T00:28:46.880Z,101390.06
2022-11-03T00:31:16.247Z,101387.75
2022-11-03T00:33:43.637Z,101379.00
2022-11-03T00:36:14.402Z,101382.00
2022-11-03T00:38:41.010Z,101371.03
2022-11-03T00:41:07.427Z,101358.13
2022-11-03T00:43:35.121Z,101360.38
2022-11-03T00:46:02.220Z,101362.28
2022-11-03T00:48:32.207Z,101357.09
2022-11-03T00:51:10.688Z,101369.97
2022-11-03T00:53:38.025Z,101356.66
2022-11-03T00:56:05.270Z,101351.34
2022-11-03T00:58:32.658Z,101357.72
2022-11-03T01:01:07.699Z,101352.72
2022-11-03T01:03:36.206Z,101358.88
2022-11-03T01:06:24.384Z,101356.22
2022-11-03T01:08:50.829Z,101355.19
2022-11-03T01:11:38.539Z,101355.59
2022-11-03T01:14:05.881Z,101335.81
2022-11-03T01:16:32.592Z,101339.50
2022-11-03T01:19:00.144Z,101349.84
2022-11-03T01:21:26.585Z,101337.38
2022-11-03T01:23:53.017Z,101331.66
2022-11-03T01:26:19.695Z,101328.56
2022-11-03T01:28:47.420Z,101324.72
2022-11-03T01:31:19.140Z,101318.97
2022-11-03T01:33:46.026Z,101324.28
2022-11-03T01:36:14.035Z,101320.13
2022-11-03T01:38:41.295Z,101323.13
2022-11-03T01:41:11.270Z,101306.09
2022-11-03T01:43:38.816Z,101316.63
2022-11-03T01:46:11.337Z,101302.56
2022-11-03T01:48:42.978Z,101308.31
2022-11-03T01:51:12.452Z,101293.09
2022-11-03T01:53:42.483Z,101302.13
2022-11-03T01:56:10.838Z,101296.06
2022-11-03T01:58:41.056Z,101303.00
2022-11-03T02:01:07.660Z,101283.59
2022-11-03T02:03:40.881Z,101284.56
2022-11-03T02:06:07.789Z,101284.56
2022-11-03T02:08:57.571Z,101281.59
2022-11-03T02:11:42.614Z,101266.78
2022-11-03T02:14:13.582Z,101270.19
2022-11-03T02:16:46.333Z,101265.31
2022-11-03T02:19:36.286Z,101267.53
2022-11-03T02:22:02.610Z,101264.78
2022-11-03T02:24:54.281Z,101261.69
2022-11-03T02:27:21.760Z,101257.53
2022-11-03T02:29:48.909Z,101251.56
2022-11-03T02:32:20.346Z,101254.97
2022-11-03T02:34:52.556Z,101252.22
2022-11-03T02:37:28.168Z,101253.69
2022-11-03T02:39:58.785Z,101243.47
2022-11-03T02:42:26.170Z,101246.88
2022-11-03T02:44:57.772Z,101240.06
2022-11-03T02:47:27.719Z,101230.16
2022-11-03T02:52:43.110Z,101219.53
2022-11-03T02:55:22.938Z,101214.53
2022-11-03T02:58:14.345Z,101207.72
2022-11-03T03:00:53.763Z,101205.69
2022-11-03T03:03:32.386Z,101201.84
2022-11-03T03:06:06.293Z,101206.44
2022-11-03T03:08:35.592Z,101204.19
2022-11-03T03:11:05.218Z,101204.19
2022-11-03T03:13:33.516Z,101204.50
2022-11-03T03:16:09.317Z,101200.25
2022-11-03T03:18:48.893Z,101189.28
2022-11-03T03:21:22.340Z,101175.97
2022-11-03T03:23:58.361Z,101180.13
2022-11-03T03:26:37.009Z,101180.00
2022-11-03T03:29:09.444Z,101168.19
2022-11-03T03:31:41.893Z,101162.44
2022-11-03T03:34:31.228Z,101164.25
2022-11-03T03:36:59.633Z,101161.47
2022-11-03T03:39:30.088Z,101149.13
2022-11-03T03:41:58.973Z,101149.00
2022-11-03T03:44:26.775Z,101145.91
2022-11-03T03:47:19.417Z,101152.16
2022-11-03T03:49:46.051Z,101141.81
2022-11-03T03:52:12.682Z,101134.56
2022-11-03T03:54:39.055Z,101126.69
2022-11-03T03:57:09.004Z,101136.16
2022-11-03T03:59:35.730Z,101132.66
2022-11-03T04:02:02.995Z,101131.03
2022-11-03T04:04:29.516Z,101123.78
2022-11-03T04:07:14.688Z,101121.13
2022-11-03T04:09:41.119Z,101119.22
2022-11-03T04:12:27.534Z,101124.09
2022-11-03T04:15:12.338Z,101124.41
2022-11-03T04:18:01.620Z,101123.69
2022-11-03T04:20:46.931Z,101119.09
2022-11-03T04:23:13.345Z,101117.91
2022-11-03T04:25:39.885Z,101104.28
2022-11-03T04:28:13.798Z,101112.72
2022-11-03T04:30:40.808Z,101104.28
2022-11-03T04:33:14.909Z,101103.84
2022-11-03T04:35:44.174Z,101104.59
2022-11-03T04:38:13.335Z,101097.47
2022-11-03T04:40:49.082Z,101089.91
2022-11-03T04:43:20.558Z,101097.16
2022-11-03T04:45:48.278Z,101088.53
2022-11-03T04:48:25.529Z,101082.91
2022-11-03T04:50:54.842Z,101077.25
2022-11-03T04:53:22.618Z,101086.75
2022-11-03T04:55:53.397Z,101085.69
2022-11-03T05:01:02.866Z,101075.19
2022-11-03T05:03:32.378Z,101066.13
2022-11-03T05:06:01.710Z,101065.06
2022-11-03T05:08:28.134Z,101066.25
2022-11-03T05:10:54.697Z,101059.44
2022-11-03T05:13:24.437Z,101051.03
2022-11-03T05:15:54.410Z,101057.41
2022-11-03T05:18:31.242Z,101044.09
2022-11-03T05:21:07.406Z,101046.00
2022-11-03T05:24:01.026Z,101044.53
2022-11-03T05:26:34.235Z,101039.50
2022-11-03T05:29:04.281Z,101037.59
2022-11-03T05:31:34.180Z,101029.59
2022-11-03T05:34:02.934Z,101026.50
2022-11-03T05:36:31.058Z,101015.09
2022-11-03T05:39:25.106Z,101021.91
2022-11-03T05:41:51.549Z,101005.63
2022-11-03T05:44:39.564Z,101017.34
2022-11-03T05:47:21.627Z,101006.22
2022-11-03T05:49:50.625Z,101001.22
2022-11-03T05:52:22.539Z,100999.72
2022-11-03T05:54:49.054Z,101008.16
2022-11-03T05:57:16.788Z,101003.13
2022-11-03T05:59:45.867Z,100995.13
2022-11-03T06:02:29.283Z,101001.94
2022-11-03T06:04:55.842Z,100995.88
2022-11-03T06:07:29.817Z,101001.84
2022-11-03T06:09:58.149Z,100994.59
2022-11-03T06:12:26.030Z,100986.59
2022-11-03T06:14:53.001Z,100981.28
2022-11-03T06:17:26.432Z,100983.81
2022-11-03T06:19:56.061Z,100980.41
2022-11-03T06:22:26.303Z,100978.47
2022-11-03T06:24:59.692Z,100974.19
2022-11-03T06:27:30.970Z,100979.41
2022-11-03T06:30:01.045Z,100969.06
2022-11-03T06:32:28.195Z,100964.16
2022-11-03T06:34:59.671Z,100953.50
2022-11-03T06:37:31.023Z,100957.66
2022-11-03T06:40:09.646Z,100956.19
2022-11-03T06:42:38.637Z,100954.25
2022-11-03T06:45:24.387Z,100959.59
2022-11-03T06:47:53.417Z,100959.59
2022-11-03T06:50:27.646Z,100949.38
2022-11-03T06:52:54.718Z,100948.19
2022-11-03T06:55:29.986Z,100947.31
2022-11-03T06:58:02.593Z,100951.47
2022-11-03T07:00:35.741Z,100943.78
2022-11-03T07:03:27.108Z,100939.81
2022-11-03T07:06:11.593Z,100944.25
2022-11-03T07:08:42.867Z,100945.00
2022-11-03T07:11:25.963Z,100940.84
2022-11-03T07:13:56.483Z,100943.81
2022-11-03T07:16:35.049Z,100950.63
2022-11-03T07:19:04.971Z,100946.06
2022-11-03T07:21:48.650Z,100955.84
2022-11-03T07:24:33.454Z,100944.44
2022-11-03T07:27:13.574Z,100949.16
2022-11-03T07:29:41.366Z,100954.69
2022-11-03T07:32:18.236Z,100944.00
2022-11-03T07:34:45.937Z,100934.84
2022-11-03T07:37:20.109Z,100937.06
2022-11-03T07:39:46.863Z,100930.56
2022-11-03T07:42:18.361Z,100937.69
2022-11-03T07:44:44.815Z,100926.56
2022-11-03T07:47:22.282Z,100928.38
2022-11-03T07:49:48.699Z,100923.34
2022-11-03T07:52:19.808Z,100928.84
2022-11-03T07:54:46.833Z,100926.47
2022-11-03T07:57:31.167Z,100929.00
2022-11-03T08:00:07.211Z,100917.59
2022-11-03T08:02:46.575Z,100923.22
2022-11-03T08:05:13.462Z,100916.28
2022-11-03T08:07:39.904Z,100917.31
2022-11-03T08:10:07.339Z,100911.56
2022-11-03T08:12:33.794Z,100911.81
2022-11-03T08:15:00.494Z,100909.75
2022-11-03T08:17:26.980Z,100913.47
2022-11-03T08:19:53.365Z,100913.03
2022-11-03T08:22:19.904Z,100894.22
2022-11-03T08:24:46.293Z,100902.09
2022-11-03T08:27:12.746Z,100896.63
2022-11-03T08:29:39.210Z,100894.56
2022-11-03T08:32:05.663Z,100886.41
2022-11-03T08:34:32.084Z,100882.13
2022-11-03T08:36:58.455Z,100873.22
2022-11-03T08:39:24.874Z,100867.00
2022-11-03T08:41:51.353Z,100860.78
2022-11-03T08:44:17.724Z,100854.53
2022-11-03T08:46:44.130Z,100840.75
2022-11-03T08:49:10.541Z,100839.84
2022-11-03T08:51:40.184Z,100827.53
2022-11-03T08:54:10.478Z,100823.97
2022-11-03T08:56:36.904Z,100826.94
2022-11-03T08:59:03.367Z,100816.56
2022-11-03T09:01:29.856Z,100819.38
2022-11-03T09:03:56.467Z,100814.19
2022-11-03T09:06:23.076Z,100810.91
2022-11-03T09:11:35.894Z,100802.25
2022-11-03T09:14:02.286Z,100789.03
2022-11-03T09:16:28.675Z,100774.78
2022-11-03T09:18:55.287Z,100767.63
2022-11-03T09:21:21.715Z,100761.66
2022-11-03T09:23:48.167Z,100761.22
2022-11-03T09:26:14.709Z,100755.72
2022-11-03T09:28:41.094Z,100748.44
2022-11-03T09:31:07.515Z,100739.53
2022-11-03T09:33:33.985Z,100733.28
2022-11-03T09:36:01.830Z,100726.25
2022-11-03T09:38:28.228Z,100730.13
2022-11-03T09:40:55.321Z,100723.13
2022-11-03T09:43:22.016Z,100709.31
2022-11-03T09:45:48.413Z,100705.56
2022-11-03T09:48:15.124Z,100703.75
2022-11-03T09:50:41.884Z,100693.00
2022-11-03T09:53:12.314Z,100693.41
2022-11-03T09:55:39.517Z,100694.00
2022-11-03T09:58:17.412Z,100681.53
2022-11-03T10:00:45.122Z,100672.59
2022-11-03T10:03:17.111Z,100665.88
2022-11-03T10:05:47.842Z,100664.69
2022-11-03T10:08:24.813Z,100665.69
2022-11-03T10:10:52.104Z,100662.84
2022-11-03T10:13:26.346Z,100662.22
2022-11-03T10:15:52.994Z,100651.69
2022-11-03T10:18:19.573Z,100638.31
2022-11-03T10:20:46.111Z,100634.47
2022-11-03T10:23:12.511Z,100638.03
2022-11-03T10:25:44.127Z,100632.41
2022-11-03T10:28:22.523Z,100623.47
2022-11-03T10:31:14.707Z,100627.34
2022-11-03T10:33:51.863Z,100621.72
2022-11-03T10:36:18.224Z,100615.63
2022-11-03T10:38:45.415Z,100610.28
2022-11-03T10:41:13.214Z,100610.28
2022-11-03T10:43:41.318Z,100602.28
2022-11-03T10:46:36.500Z,100599.59
2022-11-03T10:51:34.570Z,100585.59
2022-11-03T10:54:02.928Z,100574.44
2022-11-03T10:56:30.020Z,100572.75
2022-11-03T11:01:24.611Z,100559.75
2022-11-03T11:03:51.683Z,100558.56
2022-11-03T11:06:24.660Z,100558.16
2022-11-03T11:08:59.676Z,100541.19
2022-11-03T11:11:27.192Z,100545.59
2022-11-03T11:14:28.085Z,100541.06
2022-11-03T11:16:57.057Z,100545.69
2022-11-03T11:19:25.361Z,100550.09
2022-11-03T11:21:54.883Z,100553.03
2022-11-03T11:24:43.214Z,100544.09
2022-11-03T11:27:34.545Z,100530.53
2022-11-03T11:30:05.017Z,100537.34
2022-11-03T11:32:47.795Z,100535.69
2022-11-03T11:35:37.403Z,100529.66
2022-11-03T11:38:41.308Z,100513.91
2022-11-03T11:41:07.751Z,100513.53
2022-11-03T11:43:34.132Z,100501.69
2022-11-03T11:46:22.746Z,100503.22
2022-11-03T11:49:09.369Z,100489.16
2022-11-03T11:51:37.754Z,100482.13
2022-11-03T11:54:20.307Z,100497.94
2022-11-03T11:56:48.990Z,100480.66
2022-11-03T11:59:23.955Z,100468.75
2022-11-03T12:01:53.577Z,100479.50
2022-11-03T12:04:30.987Z,100455.47
2022-11-03T12:06:57.629Z,100454.53
2022-11-03T12:09:28.164Z,100444.03
2022-11-03T12:12:21.196Z,100432.53
2022-11-03T12:14:47.638Z,100440.78
2022-11-03T12:17:17.114Z,100428.94
2022-11-03T12:19:48.856Z,100417.97
2022-11-03T12:22:24.041Z,100412.63
2022-11-03T12:24:52.658Z,100405.53
2022-11-03T12:27:24.786Z,100393.63
2022-11-03T12:29:59.349Z,100393.66
2022-11-03T12:32:33.490Z,100386.69
2022-11-03T12:35:06.373Z,100386.25
2022-11-03T12:37:32.853Z,100384.56
2022-11-03T12:39:59.660Z,100379.22
2022-11-03T12:42:26.304Z,100372.91
2022-11-03T12:44:53.224Z,100370.75
2022-11-03T12:47:20.328Z,100371.75
2022-11-03T12:49:46.826Z,100372.97
2022-11-03T12:52:13.297Z,100359.81
2022-11-03T12:54:39.725Z,100360.06
2022-11-03T12:57:06.165Z,100355.66
2022-11-03T12:59:32.767Z,100347.41
2022-11-03T13:01:59.275Z,100344.56
2022-11-03T13:04:25.842Z,100339.03
2022-11-03T13:06:52.274Z,100341.75
2022-11-03T13:09:18.644Z,100316.19
2022-11-03T13:12:03.732Z,100310.09
2022-11-03T13:14:30.184Z,100307.19
2022-11-03T13:16:56.595Z,100300.34
2022-11-03T13:19:22.999Z,100297.91
2022-11-03T13:21:49.405Z,100297.88
2022-11-03T13:24:15.787Z,100287.34
2022-11-03T13:26:42.193Z,100288.28
2022-11-03T13:29:08.630Z,100281.88
2022-11-03T13:31:35.645Z,100282.59
2022-11-03T13:34:02.129Z,100271.13
2022-11-03T13:36:28.769Z,100262.38
2022-11-03T13:38:55.204Z,100256.78
2022-11-03T13:41:21.586Z,100246.53
2022-11-03T13:43:51.269Z,100234.63
2022-11-03T13:46:17.641Z,100223.63
2022-11-03T13:51:30.605Z,100216.34
2022-11-03T13:59:29.896Z,100219.75
2022-11-03T14:04:43.757Z,100222.41
2022-11-03T14:07:10.815Z,100207.28
2022-11-03T14:12:22.287Z,100185.56
2022-11-03T14:14:48.773Z,100187.25
2022-11-03T14:17:15.161Z,100186.53
2022-11-03T14:19:45.015Z,100178.72
2022-11-03T14:22:15.250Z,100181.41
2022-11-03T14:24:51.859Z,100175.31
2022-11-03T14:27:19.824Z,100166.53
2022-11-03T14:29:49.637Z,100165.81
2022-11-03T14:32:17.247Z,100160.19
2022-11-03T14:34:43.897Z,100155.31
2022-11-03T14:37:11.013Z,100149.97
2022-11-03T14:39:37.860Z,100146.06
2022-11-03T14:42:06.400Z,100153.38
2022-11-03T14:44:34.538Z,100157.47
2022-11-03T14:47:02.629Z,100168.16
2022-11-03T14:49:30.384Z,100160.84
2022-11-03T14:51:57.655Z,100154.47
2022-11-03T14:54:24.448Z,100152.50
2022-11-03T14:56:51.385Z,100148.59
2022-11-03T14:59:18.422Z,100150.75
2022-11-03T15:01:45.405Z,100134.66
2022-11-03T15:04:12.985Z,100131.47
2022-11-03T15:06:40.465Z,100134.34
2022-11-03T15:11:38.949Z,100128.22
2022-11-03T15:14:05.613Z,100134.53
2022-11-03T15:16:32.401Z,100130.84
2022-11-03T15:18:59.243Z,100118.16
2022-11-03T15:21:25.676Z,100109.88
2022-11-03T15:26:38.509Z,100108.13
2022-11-03T15:29:04.892Z,100111.97
2022-11-03T15:31:34.388Z,100100.75
2022-11-03T15:34:03.085Z,100095.16
2022-11-03T15:36:33.108Z,100088.34
2022-11-03T15:38:59.503Z,100087.09
2022-11-03T15:41:25.885Z,100085.09
2022-11-03T15:43:52.349Z,100082.91
2022-11-03T15:46:20.336Z,100073.16
2022-11-03T15:48:48.558Z,100060.47
2022-11-03T15:51:15.292Z,100053.88
2022-11-03T15:53:41.838Z,100045.59
2022-11-03T15:56:08.538Z,100046.53
2022-11-03T15:58:35.008Z,100043.09
2022-11-03T16:01:05.086Z,100046.22
2022-11-03T16:03:34.217Z,100041.13
2022-11-03T16:06:00.752Z,100036.44
2022-11-03T16:08:27.195Z,100034.25
2022-11-03T16:10:58.000Z,100036.66
2022-11-03T16:13:25.117Z,100034.66
2022-11-03T16:15:53.065Z,100025.19
2022-11-03T16:18:19.457Z,100022.97
2022-11-03T16:20:45.876Z,100019.31
2022-11-03T16:23:12.330Z,100014.44
2022-11-03T16:25:38.819Z,100013.19
2022-11-03T16:28:05.711Z,100005.63
2022-11-03T16:30:33.449Z,100000.50
2022-11-03T16:32:59.879Z,100006.59
2022-11-03T16:35:26.452Z,100004.13
2022-11-03T16:37:52.830Z,100001.41
2022-11-03T16:40:20.166Z,100007.22
2022-11-03T16:42:47.595Z,100010.31
2022-11-03T16:45:17.695Z,100011.72
2022-11-03T16:47:44.738Z,100012.66
2022-11-03T16:50:11.524Z,100008.00
2022-11-03T16:52:38.052Z,100004.34
2022-11-03T16:55:05.418Z,100010.59
2022-11-03T16:57:31.810Z,100005.00
2022-11-03T16:59:58.276Z,100002.81
2022-11-03T17:02:24.835Z,100001.06
2022-11-03T17:04:51.267Z,99993.00
2022-11-03T17:07:17.689Z,99989.81
2022-11-03T17:09:44.069Z,99990.50
2022-11-03T17:12:10.515Z,99992.38
2022-11-03T17:14:36.893Z,99996.16
2022-11-03T17:17:03.386Z,99989.09
2022-11-03T17:19:30.339Z,99990.03
2022-11-03T17:21:57.126Z,99990.97
2022-11-03T17:24:23.683Z,99981.50
2022-11-03T17:27:12.131Z,99977.28
2022-11-03T17:29:44.087Z,99977.97
2022-11-03T17:32:15.105Z,99982.78
2022-11-03T17:34:41.649Z,99974.31
2022-11-03T17:37:08.085Z,99976.44
2022-11-03T17:39:37.054Z,99975.44
2022-11-03T17:42:15.781Z,99985.28
2022-11-03T17:44:47.416Z,99972.88
2022-11-03T17:47:18.476Z,99973.78
2022-11-03T17:49:45.857Z,99973.53
2022-11-03T17:52:18.448Z,99962.59
2022-11-03T17:54:46.649Z,99957.25
2022-11-03T17:57:17.885Z,99945.13
2022-11-03T17:59:46.308Z,99939.25
2022-11-03T18:02:17.504Z,99937.50
2022-11-03T18:04:44.716Z,99942.84
2022-11-03T18:07:20.497Z,99937.97
2022-11-03T18:09:47.143Z,99940.59
2022-11-03T18:12:37.591Z,99936.19
2022-11-03T18:15:06.995Z,99935.91
2022-11-03T18:17:33.538Z,99927.66
2022-11-03T18:19:59.982Z,99923.50
2022-11-03T18:22:26.480Z,99919.66
2022-11-03T18:24:52.927Z,99914.31
2022-11-03T18:27:24.966Z,99917.00
2022-11-03T18:29:51.754Z,99926.66
2022-11-03T18:32:19.387Z,99930.78
2022-11-03T18:34:46.015Z,99923.25
2022-11-03T18:37:12.788Z,99924.44
2022-11-03T18:39:39.872Z,99921.97
2022-11-03T18:42:14.408Z,99920.22
2022-11-03T18:44:44.303Z,99925.09
2022-11-03T18:47:11.087Z,99912.25
2022-11-03T18:49:37.729Z,99909.56
2022-11-03T18:52:11.706Z,99909.56
2022-11-03T18:54:41.104Z,99913.25
2022-11-03T18:57:10.915Z,99896.25
2022-11-03T18:59:40.830Z,99899.91
2022-11-03T19:02:16.204Z,99903.50
2022-11-03T19:04:42.681Z,99898.66
2022-11-03T19:07:12.533Z,99902.78
2022-11-03T19:09:40.063Z,99900.84
2022-11-03T19:12:09.652Z,99902.78
2022-11-03T19:14:39.709Z,99899.84
2022-11-03T19:17:26.144Z,99897.19
2022-11-03T19:19:53.824Z,99886.06
2022-11-03T19:22:22.255Z,99878.78
2022-11-03T19:24:48.927Z,99878.06
2022-11-03T19:27:25.860Z,99871.25
2022-11-03T19:29:52.984Z,99864.47
2022-11-03T19:32:24.812Z,99858.41
2022-11-03T19:34:58.731Z,99863.00
2022-11-03T19:37:25.294Z,99857.41
2022-11-03T19:39:51.769Z,99858.41
2022-11-03T19:42:28.717Z,99853.81
2022-11-03T19:44:59.593Z,99837.56
2022-11-03T19:47:31.523Z,99831.03
2022-11-03T19:50:00.442Z,99834.88
2022-11-03T19:52:28.746Z,99838.75
2022-11-03T19:54:57.745Z,99842.63
2022-11-03T19:57:24.121Z,99841.41
2022-11-03T19:59:50.501Z,99835.34
2022-11-03T20:02:17.048Z,99821.31
2022-11-03T20:04:46.696Z,99836.09
2022-11-03T20:07:15.455Z,99830.75
2022-11-03T20:09:42.983Z,99821.31
2022-11-03T20:12:19.044Z,99821.03
2022-11-03T20:14:45.507Z,99832.41
2022-11-03T20:17:14.845Z,99833.16
2022-11-03T20:19:41.256Z,99840.16
2022-11-03T20:22:14.498Z,99836.00
2022-11-03T20:24:40.967Z,99842.53
2022-11-03T20:27:10.660Z,99853.66
2022-11-03T20:29:38.171Z,99840.81
2022-11-03T20:32:05.218Z,99839.59
2022-11-03T20:34:31.647Z,99840.06
2022-11-03T20:37:04.414Z,99840.06
2022-11-03T20:39:32.753Z,99827.94
2022-11-03T20:41:59.382Z,99829.91
2022-11-03T20:44:26.341Z,99834.97
2022-11-03T20:46:52.946Z,99830.84
2022-11-03T20:49:19.451Z,99820.19
2022-11-03T20:51:47.012Z,99814.13
2022-11-03T20:54:19.372Z,99817.50
2022-11-03T20:56:46.902Z,99820.44
2022-11-03T20:59:16.739Z,99818.97
2022-11-03T21:01:44.530Z,99820.19
2022-11-03T21:04:16.176Z,99820.63
2022-11-03T21:06:42.714Z,99818.72
2022-11-03T21:09:14.485Z,99820.63
2022-11-03T21:11:43.172Z,99831.75
2022-11-03T21:14:25.990Z,99827.91
2022-11-03T21:17:11.102Z,99845.28
2022-11-03T21:19:58.290Z,99841.59
2022-11-03T21:22:51.220Z,99827.56
2022-11-03T21:25:21.611Z,99845.91
2022-11-03T21:27:49.555Z,99845.09
2022-11-03T21:30:17.011Z,99833.19
2022-11-03T21:32:43.680Z,99826.84
2022-11-03T21:35:20.538Z,99855.41
2022-11-03T21:37:47.442Z,99882.50
2022-11-03T21:40:14.035Z,99898.19
2022-11-03T21:42:59.153Z,99924.53
2022-11-03T21:45:25.986Z,99939.31
2022-11-03T21:48:13.860Z,99938.31
2022-11-03T21:50:41.789Z,99927.84
2022-11-03T21:53:08.802Z,99940.91
2022-11-03T21:55:35.583Z,99951.28
2022-11-03T21:58:02.832Z,99961.38
2022-11-03T22:00:29.386Z,99958.16
2022-11-03T22:02:55.779Z,99959.06
2022-11-03T22:05:22.237Z,99956.13
2022-11-03T22:07:48.619Z,99947.41
2022-11-03T22:10:15.080Z,99944.47
2022-11-03T22:12:41.483Z,99958.69
2022-11-03T22:15:26.994Z,99961.34
2022-11-03T22:18:00.280Z,99949.41
2022-11-03T22:20:45.198Z,99938.03
2022-11-03T22:23:31.660Z,99942.91
2022-11-03T22:26:18.829Z,99953.28
2022-11-03T22:28:45.256Z,99955.94
2022-11-03T22:31:30.346Z,99957.84
2022-11-03T22:34:15.208Z,99969.69
2022-11-03T22:36:41.600Z,99974.56
2022-11-03T22:39:26.483Z,99974.09
2022-11-03T22:42:11.253Z,99976.50
2022-11-03T22:44:56.079Z,99993.94
2022-11-03T22:47:22.823Z,99993.94
2022-11-03T22:49:49.223Z,99988.59
2022-11-03T22:52:15.586Z,99993.19
2022-11-03T22:54:41.977Z,99991.72
2022-11-03T22:57:11.203Z,99989.78
2022-11-03T22:59:37.602Z,100006.22
2022-11-03T23:02:04.203Z,100000.44
2022-11-03T23:04:30.965Z,100000.44
2022-11-03T23:06:57.343Z,100002.38
2022-11-03T23:09:23.743Z,100003.09
2022-11-03T23:11:50.139Z,100017.41
2022-11-03T23:14:16.623Z,100025.84
2022-11-03T23:16:44.535Z,100021.56
2022-11-03T23:19:31.842Z,100022.75
2022-11-03T23:21:58.453Z,100026.59
2022-11-03T23:24:45.437Z,100029.25
2022-11-03T23:27:13.057Z,100022.75
2022-11-03T23:29:39.945Z,100013.75
2022-11-03T23:32:06.957Z,100021.72
2022-11-03T23:34:34.757Z,100026.31
2022-11-03T23:37:01.469Z,100028.97
2022-11-03T23:39:27.894Z,100034.28
2022-11-03T23:41:54.401Z,100043.63
2022-11-03T23:44:20.767Z,100043.81
2022-11-03T23:47:05.625Z,100054.91
2022-11-03T23:49:32.089Z,100057.75
2022-11-03T23:51:58.549Z,100058.97
2022-11-03T23:54:25.519Z,100060.59
2022-11-03T23:57:10.443Z,100057.38
2022-11-03T23:59:36.931Z,100072.59
